createdAt,value
2019-06-20T00:00:03.515Z,1002.05
2019-06-20T00:00:29.682Z,1002.05
2019-06-20T00:01:22.050Z,1002.08
2019-06-20T00:02:14.377Z,1002.07
2019-06-20T00:02:40.504Z,1002.05
2019-06-20T00:03:32.824Z,1002.07
2019-06-20T00:04:51.286Z,1002.09
2019-06-20T00:05:43.719Z,1002.08
2019-06-20T00:06:09.885Z,1002.07
2019-06-20T00:07:02.208Z,1002.08
2019-06-20T00:07:54.492Z,1002.12
2019-06-20T00:08:20.631Z,1002.11
2019-06-20T00:09:13.077Z,1002.18
2019-06-20T00:09:39.273Z,1002.17
2019-06-20T00:10:05.437Z,1002.2
2019-06-20T00:11:23.891Z,1002.14
2019-06-20T00:12:56.692Z,1002.22
2019-06-20T00:14:03.605Z,1002.22
2019-06-20T00:14:55.942Z,1002.2
2019-06-20T00:16:14.457Z,1002.18
2019-06-20T00:17:06.815Z,1002.15
2019-06-20T00:17:32.983Z,1002.18
2019-06-20T00:18:25.281Z,1002.13
2019-06-20T00:19:43.761Z,1002.14
2019-06-20T00:20:36.047Z,1002.13
2019-06-20T00:21:02.181Z,1002.11
2019-06-20T00:21:54.509Z,1002.17
2019-06-20T00:22:46.829Z,1002.14
2019-06-20T00:23:13.020Z,1002.16
2019-06-20T00:24:05.286Z,1002.2
2019-06-20T00:25:23.850Z,1002.21
2019-06-20T00:26:16.150Z,1002.23
2019-06-20T00:26:42.319Z,1002.24
2019-06-20T00:27:34.673Z,1002.26
2019-06-20T00:28:26.973Z,1002.23
2019-06-20T00:28:53.107Z,1002.24
2019-06-20T00:29:45.457Z,1002.18
2019-06-20T00:31:04.025Z,1002.15
2019-06-20T00:31:56.359Z,1002.14
2019-06-20T00:32:22.497Z,1002.13
2019-06-20T00:33:14.860Z,1002.16
2019-06-20T00:34:07.207Z,1002.21
2019-06-20T00:34:33.408Z,1002.19
2019-06-20T00:35:25.720Z,1002.19
2019-06-20T00:36:44.161Z,1002.23
2019-06-20T00:37:36.519Z,1002.29
2019-06-20T00:38:02.664Z,1002.22
2019-06-20T00:38:54.985Z,1002.27
2019-06-20T00:39:47.328Z,1002.28
2019-06-20T00:40:13.462Z,1002.28
2019-06-20T00:41:05.820Z,1002.29
2019-06-20T00:42:24.338Z,1002.28
2019-06-20T00:43:43.814Z,1002.28
2019-06-20T00:44:36.099Z,1002.23
2019-06-20T00:45:02.237Z,1002.24
2019-06-20T00:45:54.557Z,1002.32
2019-06-20T00:46:46.856Z,1002.24
2019-06-20T00:47:13.002Z,1002.28
2019-06-20T00:48:05.500Z,1002.3
2019-06-20T00:49:23.909Z,1002.3
2019-06-20T00:50:16.338Z,1002.29
2019-06-20T00:50:42.497Z,1002.29
2019-06-20T00:51:34.947Z,1002.31
2019-06-20T00:52:27.377Z,1002.3
2019-06-20T00:52:53.564Z,1002.32
2019-06-20T00:53:45.951Z,1002.33
2019-06-20T00:55:04.497Z,1002.34
2019-06-20T00:55:56.816Z,1002.36
2019-06-20T00:56:22.977Z,1002.36
2019-06-20T00:57:15.322Z,1002.43
2019-06-20T00:58:33.921Z,1002.4
2019-06-20T00:59:26.231Z,1002.43
2019-06-20T00:59:52.400Z,1002.43
2019-06-20T01:00:44.729Z,1002.46
2019-06-20T01:01:37.118Z,1002.48
2019-06-20T01:02:03.351Z,1002.47
2019-06-20T01:02:55.707Z,1002.47
2019-06-20T01:04:14.243Z,1002.49
2019-06-20T01:05:06.612Z,1002.47
2019-06-20T01:05:32.786Z,1002.47
2019-06-20T01:06:25.149Z,1002.44
2019-06-20T01:07:43.725Z,1002.43
2019-06-20T01:08:36.139Z,1002.43
2019-06-20T01:09:02.273Z,1002.44
2019-06-20T01:09:54.593Z,1002.44
2019-06-20T01:10:46.916Z,1002.43
2019-06-20T01:11:13.176Z,1002.41
2019-06-20T01:12:05.519Z,1002.38
2019-06-20T01:13:32.873Z,1002.37
2019-06-20T01:14:17.296Z,1002.35
2019-06-20T01:14:43.438Z,1002.33
2019-06-20T01:15:35.793Z,1002.3
2019-06-20T01:16:54.301Z,1002.31
2019-06-20T01:17:46.615Z,1002.3
2019-06-20T01:18:12.783Z,1002.34
2019-06-20T01:19:05.127Z,1002.33
2019-06-20T01:20:23.565Z,1002.3
2019-06-20T01:21:15.887Z,1002.31
2019-06-20T01:22:34.392Z,1002.26
2019-06-20T01:23:26.729Z,1002.31
2019-06-20T01:23:52.890Z,1002.31
2019-06-20T01:24:45.214Z,1002.32
2019-06-20T01:26:03.759Z,1002.34
2019-06-20T01:26:56.101Z,1002.34
2019-06-20T01:27:22.237Z,1002.35
2019-06-20T01:28:14.584Z,1002.38
2019-06-20T01:29:06.819Z,1002.33
2019-06-20T01:29:32.978Z,1002.29
2019-06-20T01:30:25.289Z,1002.28
2019-06-20T01:31:43.808Z,1002.35
2019-06-20T01:32:36.113Z,1002.36
2019-06-20T01:33:02.253Z,1002.34
2019-06-20T01:33:54.577Z,1002.35
2019-06-20T01:34:46.867Z,1002.35
2019-06-20T01:35:13.012Z,1002.38
2019-06-20T01:36:05.328Z,1002.38
2019-06-20T01:37:23.811Z,1002.46
2019-06-20T01:38:16.108Z,1002.46
2019-06-20T01:38:42.266Z,1002.48
2019-06-20T01:39:34.581Z,1002.47
2019-06-20T01:40:26.927Z,1002.45
2019-06-20T01:40:53.062Z,1002.45
2019-06-20T01:41:45.377Z,1002.45
2019-06-20T01:43:03.863Z,1002.44
2019-06-20T01:44:24.268Z,1002.45
2019-06-20T01:45:16.601Z,1002.44
2019-06-20T01:45:42.743Z,1002.46
2019-06-20T01:46:35.098Z,1002.47
2019-06-20T01:47:53.606Z,1002.47
2019-06-20T01:48:45.923Z,1002.48
2019-06-20T01:50:04.414Z,1002.51
2019-06-20T01:50:56.707Z,1002.5
2019-06-20T01:51:22.847Z,1002.43
2019-06-20T01:52:15.129Z,1002.49
2019-06-20T01:53:33.642Z,1002.51
2019-06-20T01:54:25.981Z,1002.51
2019-06-20T01:55:44.416Z,1002.54
2019-06-20T01:56:36.712Z,1002.52
2019-06-20T01:57:02.902Z,1002.56
2019-06-20T01:57:55.194Z,1002.57
2019-06-20T01:59:13.675Z,1002.59
2019-06-20T02:00:06.030Z,1002.6
2019-06-20T02:00:32.202Z,1002.62
2019-06-20T02:01:24.585Z,1002.61
2019-06-20T02:02:16.967Z,1002.65
2019-06-20T02:02:43.134Z,1002.65
2019-06-20T02:03:35.432Z,1002.62
2019-06-20T02:04:53.858Z,1002.64
2019-06-20T02:05:46.153Z,1002.65
2019-06-20T02:06:12.295Z,1002.63
2019-06-20T02:07:04.629Z,1002.57
2019-06-20T02:08:24.039Z,1002.6
2019-06-20T02:09:16.332Z,1002.58
2019-06-20T02:09:42.514Z,1002.67
2019-06-20T02:10:34.870Z,1002.57
2019-06-20T02:11:27.185Z,1002.62
2019-06-20T02:11:53.323Z,1002.6
2019-06-20T02:12:45.667Z,1002.6
2019-06-20T02:14:07.430Z,1002.61
2019-06-20T02:14:32.271Z,1002.62
2019-06-20T02:15:24.623Z,1002.58
2019-06-20T02:16:16.963Z,1002.53
2019-06-20T02:16:43.145Z,1002.56
2019-06-20T02:17:35.491Z,1002.54
2019-06-20T02:18:53.954Z,1002.54
2019-06-20T02:19:46.248Z,1002.52
2019-06-20T02:20:12.393Z,1002.56
2019-06-20T02:21:04.747Z,1002.57
2019-06-20T02:21:57.110Z,1002.56
2019-06-20T02:22:23.300Z,1002.52
2019-06-20T02:23:15.676Z,1002.49
2019-06-20T02:24:34.236Z,1002.52
2019-06-20T02:25:26.525Z,1002.49
2019-06-20T02:25:52.664Z,1002.5
2019-06-20T02:26:44.985Z,1002.51
2019-06-20T02:27:37.317Z,1002.55
2019-06-20T02:28:03.460Z,1002.48
2019-06-20T02:28:55.800Z,1002.48
2019-06-20T02:30:14.280Z,1002.51
2019-06-20T02:31:06.709Z,1002.47
2019-06-20T02:31:32.848Z,1002.44
2019-06-20T02:32:25.145Z,1002.51
2019-06-20T02:33:43.631Z,1002.51
2019-06-20T02:34:35.949Z,1002.51
2019-06-20T02:35:54.522Z,1002.48
2019-06-20T02:36:46.786Z,1002.5
2019-06-20T02:37:12.970Z,1002.55
2019-06-20T02:38:05.267Z,1002.54
2019-06-20T02:39:23.819Z,1002.58
2019-06-20T02:40:16.148Z,1002.58
2019-06-20T02:40:42.302Z,1002.61
2019-06-20T02:41:34.601Z,1002.68
2019-06-20T02:42:26.928Z,1002.64
2019-06-20T02:42:53.058Z,1002.67
2019-06-20T02:43:45.378Z,1002.61
2019-06-20T02:45:05.845Z,1002.64
2019-06-20T02:46:24.320Z,1002.68
2019-06-20T02:47:16.729Z,1002.68
2019-06-20T02:47:42.922Z,1002.71
2019-06-20T02:48:35.243Z,1002.74
2019-06-20T02:49:53.741Z,1002.75
2019-06-20T02:50:46.872Z,1002.7
2019-06-20T02:51:13.042Z,1002.71
2019-06-20T02:52:05.431Z,1002.69
2019-06-20T02:53:24.163Z,1002.71
2019-06-20T02:54:16.477Z,1002.76
2019-06-20T02:54:42.651Z,1002.73
2019-06-20T02:55:34.940Z,1002.75
2019-06-20T02:56:27.276Z,1002.76
2019-06-20T02:56:53.415Z,1002.75
2019-06-20T02:57:45.723Z,1002.73
2019-06-20T02:59:04.237Z,1002.74
2019-06-20T02:59:56.586Z,1002.79
2019-06-20T03:00:22.771Z,1002.81
2019-06-20T03:01:15.167Z,1002.76
2019-06-20T03:02:33.708Z,1002.76
2019-06-20T03:03:25.991Z,1002.77
2019-06-20T03:03:52.157Z,1002.78
2019-06-20T03:04:45.681Z,1002.75
2019-06-20T03:06:03.928Z,1002.77
2019-06-20T03:06:56.310Z,1002.8
2019-06-20T03:07:22.455Z,1002.75
2019-06-20T03:08:14.786Z,1002.8
2019-06-20T03:09:07.164Z,1002.81
2019-06-20T03:09:33.365Z,1002.83
2019-06-20T03:10:25.672Z,1002.84
2019-06-20T03:11:44.130Z,1002.85
2019-06-20T03:12:36.430Z,1002.82
2019-06-20T03:13:02.579Z,1002.9
2019-06-20T03:13:54.898Z,1002.85
2019-06-20T03:14:47.277Z,1002.85
2019-06-20T03:15:13.448Z,1002.86
2019-06-20T03:16:05.763Z,1002.84
2019-06-20T03:17:24.226Z,1002.85
2019-06-20T03:18:16.536Z,1002.83
2019-06-20T03:18:42.673Z,1002.87
2019-06-20T03:19:34.972Z,1002.9
2019-06-20T03:20:27.295Z,1002.88
2019-06-20T03:20:53.494Z,1002.92
2019-06-20T03:21:45.769Z,1002.92
2019-06-20T03:23:04.472Z,1002.92
2019-06-20T03:23:56.715Z,1002.95
2019-06-20T03:24:22.875Z,1002.91
2019-06-20T03:25:15.218Z,1002.92
2019-06-20T03:26:33.645Z,1002.88
2019-06-20T03:27:26.007Z,1002.95
2019-06-20T03:27:52.147Z,1002.91
2019-06-20T03:28:44.474Z,1002.88
2019-06-20T03:29:36.802Z,1002.92
2019-06-20T03:30:02.950Z,1002.89
2019-06-20T03:30:55.304Z,1002.93
2019-06-20T03:32:13.827Z,1002.93
2019-06-20T03:33:06.196Z,1002.94
2019-06-20T03:33:32.318Z,1002.93
2019-06-20T03:34:24.733Z,1002.93
2019-06-20T03:35:17.162Z,1002.95
2019-06-20T03:35:43.297Z,1002.94
2019-06-20T03:36:35.607Z,1002.95
2019-06-20T03:37:54.069Z,1002.96
2019-06-20T03:38:46.400Z,1002.97
2019-06-20T03:39:12.537Z,1002.93
2019-06-20T03:40:04.872Z,1002.94
2019-06-20T03:40:57.250Z,1002.99
2019-06-20T03:41:23.431Z,1002.96
2019-06-20T03:42:15.743Z,1002.99
2019-06-20T03:43:34.215Z,1002.97
2019-06-20T03:45:01.910Z,1002.95
2019-06-20T03:45:47.127Z,1002.99
2019-06-20T03:46:13.297Z,1003.03
2019-06-20T03:47:05.627Z,1003.02
2019-06-20T03:48:24.084Z,1003.12
2019-06-20T03:49:16.410Z,1003.06
2019-06-20T03:49:42.575Z,1003.04
2019-06-20T03:50:34.881Z,1003.06
2019-06-20T03:51:27.173Z,1003.07
2019-06-20T03:51:53.343Z,1003.1
2019-06-20T03:52:45.695Z,1003.12
2019-06-20T03:54:04.169Z,1003.11
2019-06-20T03:54:56.503Z,1003.15
2019-06-20T03:55:22.652Z,1003.13
2019-06-20T03:56:14.946Z,1003.15
2019-06-20T03:57:07.278Z,1003.17
2019-06-20T03:57:33.396Z,1003.18
2019-06-20T03:58:25.694Z,1003.21
2019-06-20T03:59:44.136Z,1003.22
2019-06-20T04:00:36.468Z,1003.25
2019-06-20T04:01:02.645Z,1003.27
2019-06-20T04:01:54.991Z,1003.25
2019-06-20T04:02:47.289Z,1003.26
2019-06-20T04:03:13.459Z,1003.28
2019-06-20T04:04:05.768Z,1003.27
2019-06-20T04:05:24.301Z,1003.3
2019-06-20T04:06:16.605Z,1003.3
2019-06-20T04:06:42.738Z,1003.32
2019-06-20T04:07:35.081Z,1003.33
2019-06-20T04:08:53.544Z,1003.34
2019-06-20T04:10:16.259Z,1003.32
2019-06-20T04:10:43.842Z,1003.38
2019-06-20T04:12:06.177Z,1003.39
2019-06-20T04:12:32.634Z,1003.36
2019-06-20T04:13:26.636Z,1003.4
2019-06-20T04:13:53.502Z,1003.39
2019-06-20T04:14:48.940Z,1003.42
2019-06-20T04:15:18.847Z,1003.36
2019-06-20T04:16:07.383Z,1003.38
2019-06-20T04:16:33.820Z,1003.42
2019-06-20T04:17:26.609Z,1003.45
2019-06-20T04:17:52.951Z,1003.45
2019-06-20T04:18:45.676Z,1003.49
2019-06-20T04:20:05.005Z,1003.51
2019-06-20T04:21:24.061Z,1003.54
2019-06-20T04:22:16.784Z,1003.51
2019-06-20T04:22:43.201Z,1003.53
2019-06-20T04:23:36.225Z,1003.57
2019-06-20T04:24:02.635Z,1003.57
2019-06-20T04:24:55.404Z,1003.53
2019-06-20T04:26:13.919Z,1003.64
2019-06-20T04:27:06.271Z,1003.54
2019-06-20T04:27:32.454Z,1003.57
2019-06-20T04:28:24.807Z,1003.63
2019-06-20T04:29:17.170Z,1003.61
2019-06-20T04:29:44.299Z,1003.58
2019-06-20T04:30:36.625Z,1003.58
2019-06-20T04:31:02.775Z,1003.6
2019-06-20T04:31:55.118Z,1003.57
2019-06-20T04:33:13.579Z,1003.56
2019-06-20T04:34:05.929Z,1003.57
2019-06-20T04:35:24.475Z,1003.53
2019-06-20T04:36:16.855Z,1003.59
2019-06-20T04:36:43.044Z,1003.53
2019-06-20T04:37:35.374Z,1003.57
2019-06-20T04:38:53.886Z,1003.56
2019-06-20T04:39:47.201Z,1003.57
2019-06-20T04:40:13.374Z,1003.54
2019-06-20T04:41:05.670Z,1003.55
2019-06-20T04:42:24.170Z,1003.57
2019-06-20T04:43:16.465Z,1003.62
2019-06-20T04:43:42.623Z,1003.61
2019-06-20T04:44:34.952Z,1003.64
2019-06-20T04:45:34.823Z,1003.63
2019-06-20T04:45:54.386Z,1003.62
2019-06-20T04:46:46.711Z,1003.62
2019-06-20T04:47:12.852Z,1003.62
2019-06-20T04:48:05.152Z,1003.66
2019-06-20T04:49:23.636Z,1003.65
2019-06-20T04:50:15.946Z,1003.65
2019-06-20T04:51:34.398Z,1003.66
2019-06-20T04:52:26.744Z,1003.69
2019-06-20T04:52:52.884Z,1003.69
2019-06-20T04:53:45.208Z,1003.69
2019-06-20T04:55:03.671Z,1003.7
2019-06-20T04:55:56.021Z,1003.73
2019-06-20T04:56:22.196Z,1003.75
2019-06-20T04:57:14.552Z,1003.73
2019-06-20T04:58:06.851Z,1003.73
2019-06-20T04:58:33.004Z,1003.73
2019-06-20T04:59:25.443Z,1003.75
2019-06-20T05:00:43.843Z,1003.76
2019-06-20T05:01:36.125Z,1003.8
2019-06-20T05:02:02.286Z,1003.77
2019-06-20T05:02:55.679Z,1003.81
2019-06-20T05:04:14.146Z,1003.83
2019-06-20T05:05:06.588Z,1003.8
2019-06-20T05:05:32.773Z,1003.83
2019-06-20T05:06:25.093Z,1003.81
2019-06-20T05:07:43.562Z,1003.84
2019-06-20T05:08:35.895Z,1003.86
2019-06-20T05:09:54.330Z,1003.93
2019-06-20T05:10:46.650Z,1003.94
2019-06-20T05:11:12.877Z,1003.97
2019-06-20T05:12:05.190Z,1003.92
2019-06-20T05:13:24.693Z,1003.97
2019-06-20T05:14:17.272Z,1004
2019-06-20T05:14:43.454Z,1004.01
2019-06-20T05:15:51.304Z,1004.03
2019-06-20T05:16:03.970Z,1004.05
2019-06-20T05:16:56.320Z,1004.1
2019-06-20T05:17:23.058Z,1004.07
2019-06-20T05:18:15.358Z,1004.05
2019-06-20T05:19:33.836Z,1004.06
2019-06-20T05:20:26.150Z,1004.08
2019-06-20T05:20:52.310Z,1004.05
2019-06-20T05:21:44.666Z,1004.08
2019-06-20T05:22:36.954Z,1004.07
2019-06-20T05:23:03.125Z,1004.08
2019-06-20T05:23:55.462Z,1004.07
2019-06-20T05:25:14.031Z,1004.06
2019-06-20T05:26:06.327Z,1004.09
2019-06-20T05:26:32.486Z,1004.13
2019-06-20T05:27:24.843Z,1004.12
2019-06-20T05:28:17.131Z,1004.17
2019-06-20T05:28:43.359Z,1004.15
2019-06-20T05:29:36.030Z,1004.16
2019-06-20T05:30:02.251Z,1004.18
2019-06-20T05:30:54.919Z,1004.17
2019-06-20T05:31:47.433Z,1004.21
2019-06-20T05:32:13.623Z,1004.23
2019-06-20T05:33:05.974Z,1004.24
2019-06-20T05:34:24.461Z,1004.2
2019-06-20T05:35:16.809Z,1004.22
2019-06-20T05:35:42.964Z,1004.2
2019-06-20T05:36:35.255Z,1004.21
2019-06-20T05:37:53.844Z,1004.23
2019-06-20T05:38:46.166Z,1004.26
2019-06-20T05:39:12.395Z,1004.27
2019-06-20T05:40:04.722Z,1004.33
2019-06-20T05:41:24.194Z,1004.33
2019-06-20T05:42:16.548Z,1004.33
2019-06-20T05:42:42.690Z,1004.37
2019-06-20T05:43:35.075Z,1004.39
2019-06-20T05:44:27.383Z,1004.38
2019-06-20T05:44:53.553Z,1004.39
2019-06-20T05:45:48.632Z,1004.4
2019-06-20T05:46:15.012Z,1004.4
2019-06-20T05:47:35.074Z,1004.44
2019-06-20T05:48:27.381Z,1004.47
2019-06-20T05:48:53.845Z,1004.51
2019-06-20T05:49:46.191Z,1004.47
2019-06-20T05:50:13.274Z,1004.47
2019-06-20T05:51:04.667Z,1004.49
2019-06-20T05:52:24.198Z,1004.51
2019-06-20T05:53:16.530Z,1004.49
2019-06-20T05:53:42.682Z,1004.54
2019-06-20T05:54:35.014Z,1004.51
2019-06-20T05:55:27.334Z,1004.52
2019-06-20T05:55:53.523Z,1004.54
2019-06-20T05:56:45.842Z,1004.55
2019-06-20T05:58:04.361Z,1004.56
2019-06-20T05:58:56.696Z,1004.53
2019-06-20T05:59:22.922Z,1004.59
2019-06-20T06:00:15.273Z,1004.55
2019-06-20T06:01:33.736Z,1004.59
2019-06-20T06:02:27.047Z,1004.58
2019-06-20T06:02:53.262Z,1004.6
2019-06-20T06:03:45.695Z,1004.62
2019-06-20T06:05:04.904Z,1004.56
2019-06-20T06:05:57.256Z,1004.56
2019-06-20T06:06:23.464Z,1004.55
2019-06-20T06:07:15.811Z,1004.51
2019-06-20T06:08:35.162Z,1004.52
2019-06-20T06:09:53.642Z,1004.55
2019-06-20T06:10:47.118Z,1004.64
2019-06-20T06:11:13.126Z,1004.64
2019-06-20T06:12:05.470Z,1004.69
2019-06-20T06:12:32.593Z,1004.69
2019-06-20T06:13:24.913Z,1004.66
2019-06-20T06:14:17.296Z,1004.74
2019-06-20T06:14:43.486Z,1004.74
2019-06-20T06:15:35.773Z,1004.75
2019-06-20T06:16:56.306Z,1004.68
2019-06-20T06:17:22.449Z,1004.67
2019-06-20T06:18:14.742Z,1004.59
2019-06-20T06:19:07.044Z,1004.63
2019-06-20T06:19:33.232Z,1004.61
2019-06-20T06:20:25.583Z,1004.64
2019-06-20T06:21:44.075Z,1004.57
2019-06-20T06:22:36.428Z,1004.47
2019-06-20T06:23:02.605Z,1004.46
2019-06-20T06:23:54.950Z,1004.4
2019-06-20T06:25:13.792Z,1004.47
2019-06-20T06:26:06.146Z,1004.44
2019-06-20T06:26:32.308Z,1004.47
2019-06-20T06:27:24.611Z,1004.51
2019-06-20T06:28:16.952Z,1004.5
2019-06-20T06:28:43.133Z,1004.48
2019-06-20T06:29:35.505Z,1004.5
2019-06-20T06:30:53.983Z,1004.58
2019-06-20T06:31:46.305Z,1004.62
2019-06-20T06:32:12.473Z,1004.67
2019-06-20T06:33:06.817Z,1004.64
2019-06-20T06:33:32.981Z,1004.65
2019-06-20T06:34:25.295Z,1004.67
2019-06-20T06:35:43.826Z,1004.7
2019-06-20T06:36:36.151Z,1004.73
2019-06-20T06:37:02.312Z,1004.76
2019-06-20T06:37:54.658Z,1004.68
2019-06-20T06:39:14.198Z,1004.69
2019-06-20T06:40:06.496Z,1004.7
2019-06-20T06:40:32.658Z,1004.66
2019-06-20T06:41:24.986Z,1004.62
2019-06-20T06:42:17.368Z,1004.72
2019-06-20T06:42:43.524Z,1004.66
2019-06-20T06:43:41.464Z,1004.66
2019-06-20T06:44:55.389Z,1004.78
2019-06-20T06:46:13.867Z,1004.72
2019-06-20T06:47:34.331Z,1004.85
2019-06-20T06:48:26.632Z,1004.87
2019-06-20T06:48:52.775Z,1004.89
2019-06-20T06:49:45.102Z,1004.86
2019-06-20T06:51:03.546Z,1004.75
2019-06-20T06:51:55.907Z,1004.72
2019-06-20T06:53:14.405Z,1004.75
2019-06-20T06:54:06.791Z,1004.8
2019-06-20T06:54:32.967Z,1004.8
2019-06-20T06:55:27.420Z,1004.63
2019-06-20T06:55:52.424Z,1004.65
2019-06-20T06:56:44.786Z,1004.57
2019-06-20T06:57:37.111Z,1004.52
2019-06-20T06:58:03.282Z,1004.52
2019-06-20T06:58:55.618Z,1004.52
2019-06-20T07:00:14.098Z,1004.49
2019-06-20T07:01:10.056Z,1004.51
2019-06-20T07:01:32.710Z,1004.51
2019-06-20T07:02:25.071Z,1004.48
2019-06-20T07:03:43.596Z,1004.57
2019-06-20T07:04:35.895Z,1004.55
2019-06-20T07:05:54.418Z,1004.54
2019-06-20T07:06:46.769Z,1004.62
2019-06-20T07:07:12.939Z,1004.6
2019-06-20T07:08:05.262Z,1004.62
2019-06-20T07:09:23.846Z,1004.69
2019-06-20T07:10:16.225Z,1004.76
2019-06-20T07:10:42.368Z,1004.74
2019-06-20T07:11:34.704Z,1004.77
2019-06-20T07:12:27.072Z,1004.82
2019-06-20T07:12:53.212Z,1004.87
2019-06-20T07:13:45.568Z,1004.94
2019-06-20T07:15:04.084Z,1004.88
2019-06-20T07:15:56.459Z,1004.95
2019-06-20T07:16:22.670Z,1004.93
2019-06-20T07:17:15.964Z,1004.95
2019-06-20T07:18:34.501Z,1004.99
2019-06-20T07:19:26.855Z,1004.99
2019-06-20T07:19:53.037Z,1005.03
2019-06-20T07:20:46.374Z,1004.96
2019-06-20T07:21:12.534Z,1004.88
2019-06-20T07:22:04.923Z,1004.78
2019-06-20T07:22:57.298Z,1004.74
2019-06-20T07:23:23.449Z,1004.69
2019-06-20T07:24:15.810Z,1004.66
2019-06-20T07:25:34.253Z,1004.68
2019-06-20T07:26:26.622Z,1004.74
2019-06-20T07:26:52.771Z,1004.74
2019-06-20T07:27:45.069Z,1004.71
2019-06-20T07:28:37.361Z,1004.73
2019-06-20T07:29:03.536Z,1004.76
2019-06-20T07:29:55.924Z,1004.79
2019-06-20T07:31:14.358Z,1004.9
2019-06-20T07:32:06.706Z,1004.81
2019-06-20T07:32:32.882Z,1004.8
2019-06-20T07:33:25.203Z,1004.79
2019-06-20T07:34:43.735Z,1004.84
2019-06-20T07:35:36.072Z,1004.84
2019-06-20T07:36:02.260Z,1004.85
2019-06-20T07:36:54.619Z,1004.82
2019-06-20T07:37:46.963Z,1004.76
2019-06-20T07:38:13.123Z,1004.83
2019-06-20T07:39:05.457Z,1004.81
2019-06-20T07:40:23.945Z,1005.02
2019-06-20T07:41:16.323Z,1005.12
2019-06-20T07:41:42.489Z,1005.21
2019-06-20T07:42:34.830Z,1005.18
2019-06-20T07:43:27.128Z,1005.23
2019-06-20T07:43:53.453Z,1005.14
2019-06-20T07:44:45.712Z,1005.04
2019-06-20T07:46:05.257Z,1005.03
2019-06-20T07:47:23.811Z,1005
2019-06-20T07:48:16.148Z,1004.97
2019-06-20T07:48:42.287Z,1004.96
2019-06-20T07:49:34.652Z,1004.95
2019-06-20T07:50:26.981Z,1004.97
2019-06-20T07:50:53.139Z,1004.98
2019-06-20T07:51:45.510Z,1004.96
2019-06-20T07:53:06.143Z,1004.94
2019-06-20T07:53:32.372Z,1004.97
2019-06-20T07:54:24.721Z,1005.03
2019-06-20T07:55:17.129Z,1004.95
2019-06-20T07:55:43.372Z,1004.9
2019-06-20T07:56:36.021Z,1004.89
2019-06-20T07:57:02.166Z,1004.95
2019-06-20T07:57:54.559Z,1004.95
2019-06-20T07:58:46.857Z,1004.93
2019-06-20T07:59:13.014Z,1004.94
2019-06-20T08:00:05.471Z,1004.98
2019-06-20T08:01:24.004Z,1004.95
2019-06-20T08:02:16.338Z,1005.03
2019-06-20T08:02:42.514Z,1005.05
2019-06-20T08:03:35.054Z,1004.99
2019-06-20T08:04:53.574Z,1005.03
2019-06-20T08:05:45.918Z,1005.05
2019-06-20T08:07:04.616Z,1005.07
2019-06-20T08:07:57.085Z,1005.02
2019-06-20T08:08:23.497Z,1005.04
2019-06-20T08:09:15.872Z,1005.07
2019-06-20T08:09:45.015Z,1005.02
2019-06-20T08:11:04.920Z,1005.04
2019-06-20T08:11:57.396Z,1005.07
2019-06-20T08:12:23.868Z,1005.1
2019-06-20T08:13:16.204Z,1005.06
2019-06-20T08:13:42.462Z,1005.1
2019-06-20T08:14:34.800Z,1005.1
2019-06-20T08:15:54.384Z,1005.08
2019-06-20T08:16:46.731Z,1005.07
2019-06-20T08:17:12.908Z,1005.07
2019-06-20T08:18:07.279Z,1004.94
2019-06-20T08:18:33.498Z,1004.95
2019-06-20T08:19:25.845Z,1004.99
2019-06-20T08:20:44.472Z,1004.95
2019-06-20T08:21:36.804Z,1005.01
2019-06-20T08:22:03.029Z,1004.96
2019-06-20T08:22:55.360Z,1005
2019-06-20T08:24:14.234Z,1005.06
2019-06-20T08:25:07.210Z,1005.08
2019-06-20T08:25:33.358Z,1005.1
2019-06-20T08:26:25.682Z,1005.13
2019-06-20T08:27:46.447Z,1005.22
2019-06-20T08:28:14.591Z,1005.22
2019-06-20T08:29:18.506Z,1005.27
2019-06-20T08:29:35.071Z,1005.22
2019-06-20T08:30:03.533Z,1005.28
2019-06-20T08:30:56.048Z,1005.3
2019-06-20T08:31:22.559Z,1005.29
2019-06-20T08:32:15.011Z,1005.34
2019-06-20T08:33:35.684Z,1005.39
2019-06-20T08:34:02.799Z,1005.46
2019-06-20T08:34:56.605Z,1005.48
2019-06-20T08:35:22.169Z,1005.5
2019-06-20T08:36:14.548Z,1005.5
2019-06-20T08:37:34.157Z,1005.53
2019-06-20T08:38:54.112Z,1005.53
2019-06-20T08:40:13.585Z,1005.42
2019-06-20T08:41:06.918Z,1005.41
2019-06-20T08:41:33.138Z,1005.43
2019-06-20T08:42:27.350Z,1005.55
2019-06-20T08:42:53.528Z,1005.63
2019-06-20T08:43:46.108Z,1005.53
2019-06-20T08:44:14.323Z,1005.54
2019-06-20T08:45:06.660Z,1005.73
2019-06-20T08:45:32.798Z,1005.71
2019-06-20T08:46:26.328Z,1005.79
2019-06-20T08:46:52.520Z,1005.77
2019-06-20T08:47:45.724Z,1005.69
2019-06-20T08:48:13.093Z,1005.72
2019-06-20T08:49:06.464Z,1005.76
2019-06-20T08:49:32.629Z,1005.79
2019-06-20T08:50:25.202Z,1005.78
2019-06-20T08:51:44.779Z,1005.74
2019-06-20T08:53:05.814Z,1005.79
2019-06-20T08:53:32.345Z,1005.85
2019-06-20T08:54:25.686Z,1005.77
2019-06-20T08:55:45.393Z,1005.89
2019-06-20T08:56:12.546Z,1005.9
2019-06-20T08:57:06.374Z,1005.74
2019-06-20T08:57:32.550Z,1005.77
2019-06-20T08:58:25.087Z,1005.68
2019-06-20T08:59:45.972Z,1005.96
2019-06-20T09:00:13.236Z,1006
2019-06-20T09:02:24.286Z,1005.91
2019-06-20T09:03:44.140Z,1006.03
2019-06-20T09:05:04.376Z,1005.95
2019-06-20T09:05:57.143Z,1005.73
2019-06-20T09:06:23.179Z,1005.84
2019-06-20T09:07:15.551Z,1006.09
2019-06-20T09:08:35.463Z,1005.65
2019-06-20T09:09:02.589Z,1005.68
2019-06-20T09:09:55.846Z,1006.02
2019-06-20T09:11:14.524Z,1005.74
2019-06-20T09:12:06.992Z,1005.89
2019-06-20T09:12:33.162Z,1005.95
2019-06-20T09:13:27.140Z,1006.09
2019-06-20T09:13:53.966Z,1006.08
2019-06-20T09:14:46.544Z,1005.59
2019-06-20T09:15:13.713Z,1005.71
2019-06-20T09:16:07.136Z,1005.81
2019-06-20T09:16:34.299Z,1006.15
2019-06-20T09:17:55.115Z,1006.13
2019-06-20T09:18:47.198Z,1005.99
2019-06-20T09:19:14.351Z,1006.13
2019-06-20T09:20:06.686Z,1005.72
2019-06-20T09:20:32.827Z,1005.89
2019-06-20T09:21:25.593Z,1005.52
2019-06-20T09:22:45.178Z,1005.54
2019-06-20T09:24:04.151Z,1005.59
2019-06-20T09:24:56.835Z,1005.63
2019-06-20T09:25:23.053Z,1005.67
2019-06-20T09:26:15.453Z,1005.74
2019-06-20T09:27:35.079Z,1005.83
2019-06-20T09:28:55.604Z,1005.81
2019-06-20T09:29:22.153Z,1005.78
2019-06-20T09:30:15.535Z,1005.83
2019-06-20T09:31:35.499Z,1005.73
2019-06-20T09:32:04.645Z,1005.82
2019-06-20T09:32:57.722Z,1005.91
2019-06-20T09:33:24.923Z,1005.91
2019-06-20T09:34:17.374Z,1005.79
2019-06-20T09:34:43.486Z,1005.88
2019-06-20T09:35:36.378Z,1005.77
2019-06-20T09:36:04.067Z,1005.74
2019-06-20T09:36:57.511Z,1005.7
2019-06-20T09:37:25.163Z,1005.71
2019-06-20T09:38:45.210Z,1005.94
2019-06-20T09:40:05.126Z,1005.71
2019-06-20T09:41:24.482Z,1005.68
2019-06-20T09:42:43.668Z,1005.73
2019-06-20T09:44:04.846Z,1005.77
2019-06-20T09:45:24.009Z,1005.9
2019-06-20T09:46:17.021Z,1005.92
2019-06-20T09:46:43.206Z,1005.93
2019-06-20T09:47:36.110Z,1006.02
2019-06-20T09:48:03.327Z,1006
2019-06-20T09:48:55.637Z,1006.24
2019-06-20T09:50:15.539Z,1005.84
2019-06-20T09:51:36.152Z,1005.88
2019-06-20T09:52:04.301Z,1005.84
2019-06-20T09:53:25.343Z,1005.94
2019-06-20T09:54:45.104Z,1005.63
2019-06-20T09:55:12.405Z,1005.73
2019-06-20T09:56:06.041Z,1005.78
2019-06-20T09:56:32.307Z,1005.93
2019-06-20T09:57:26.125Z,1005.76
2019-06-20T09:57:53.703Z,1005.81
2019-06-20T09:58:46.886Z,1005.88
2019-06-20T09:59:26.813Z,1006
2019-06-20T10:00:10.292Z,1006.04
2019-06-20T10:00:32.948Z,1006.12
2019-06-20T10:01:26.266Z,1006.17
2019-06-20T10:01:55.525Z,1006.61
2019-06-20T10:03:15.198Z,1006.45
2019-06-20T10:04:36.710Z,1005.94
2019-06-20T10:05:03.217Z,1005.85
2019-06-20T10:05:57.566Z,1005.73
2019-06-20T10:06:25.189Z,1005.74
2019-06-20T10:06:52.677Z,1005.74
2019-06-20T10:07:45.763Z,1005.78
2019-06-20T10:08:12.488Z,1005.82
2019-06-20T10:09:04.870Z,1005.82
2019-06-20T10:10:25.069Z,1005.81
2019-06-20T10:10:52.437Z,1005.84
2019-06-20T10:11:46.799Z,1005.81